Time;durP1;ratioP1;P1;durP2;ratioP2;P2;SDS_P1;SDS_P2;PMS_P1;PMS_P2;Temp;Humidity;BMP_temperature;BMP_pressure;BME280_temperature;BME280_humidity;BME280_pressure;Samples;Min_cycle;Max_cycle;Signal;HPM_P1;HPM_P2
2022/05/30 00:00:27;;;;;;;0.40;0.40;;;12.40;99.90;;;;;;5020412;28;20026;-79
2022/05/30 00:02:52;;;;;;;0.88;0.88;;;12.40;99.90;;;;;;5024791;28;20116;-79
2022/05/30 00:05:20;;;;;;;0.55;0.55;;;12.40;99.90;;;;;;5016733;28;20026;-80
2022/05/30 00:07:46;;;;;;;0.20;0.20;;;12.30;99.90;;;;;;5014042;28;20447;-79
2022/05/30 00:10:14;;;;;;;2.08;0.47;;;12.30;99.90;;;;;;5024051;28;20104;-79
2022/05/30 00:12:40;;;;;;;0.17;0.05;;;12.20;99.90;;;;;;5013752;28;20037;-79
2022/05/30 00:15:09;;;;;;;0.43;0.40;;;12.10;99.90;;;;;;5019346;28;20026;-79
2022/05/30 00:17:35;;;;;;;0.63;0.40;;;12.00;99.90;;;;;;5031263;28;20510;-80
2022/05/30 00:20:00;;;;;;;1.00;0.28;;;12.00;99.90;;;;;;5014178;28;20090;-80
2022/05/30 00:22:26;;;;;;;0.85;0.55;;;11.90;99.90;;;;;;5010637;28;20084;-80
2022/05/30 00:24:51;;;;;;;0.20;0.20;;;11.80;99.90;;;;;;5012901;28;20076;-80
2022/05/30 00:27:18;;;;;;;0.20;0.20;;;11.60;99.90;;;;;;5012648;28;20036;-80
2022/05/30 00:29:44;;;;;;;0.40;0.38;;;11.50;99.90;;;;;;5013755;28;20092;-80
2022/05/30 00:32:10;;;;;;;0.22;0.22;;;11.40;99.90;;;;;;5009235;28;20507;-80
2022/05/30 00:34:36;;;;;;;0.20;0.20;;;11.40;99.90;;;;;;5007492;28;20062;-80
2022/05/30 00:37:02;;;;;;;0.73;0.73;;;11.30;99.90;;;;;;5015005;28;20397;-79
2022/05/30 00:39:28;;;;;;;0.20;0.20;;;11.30;99.90;;;;;;5020075;28;20547;-80
2022/05/30 00:42:10;;;;;;;1.10;0.40;;;11.20;99.90;;;;;;5015389;28;20113;-79
2022/05/30 00:44:36;;;;;;;0.38;0.38;;;11.20;99.90;;;;;;5017536;28;20037;-80
2022/05/30 00:47:02;;;;;;;1.45;0.47;;;11.10;99.90;;;;;;5019815;28;20037;-80
2022/05/30 00:49:28;;;;;;;0.60;0.50;;;11.20;99.90;;;;;;5012392;28;20029;-80
2022/05/30 00:51:56;;;;;;;0.35;0.35;;;11.10;99.90;;;;;;5012325;28;20080;-79
2022/05/30 00:54:28;;;;;;;2.35;0.73;;;11.10;99.90;;;;;;5017250;28;20061;-81
2022/05/30 00:56:59;;;;;;;0.65;0.50;;;11.20;99.90;;;;;;5014459;28;20128;-80
2022/05/30 00:59:25;;;;;;;0.20;0.20;;;11.30;99.90;;;;;;5024832;28;20025;-80
2022/05/30 01:01:50;;;;;;;1.52;0.50;;;11.30;99.90;;;;;;5022396;28;20422;-80
2022/05/30 01:07:04;;;;;;;0.85;0.22;;;11.40;99.90;;;;;;5014995;28;20109;-80
2022/05/30 01:09:40;;;;;;;0.30;0.30;;;11.60;99.90;;;;;;5015933;28;20124;-80
2022/05/30 01:12:09;;;;;;;0.30;0.30;;;11.60;99.90;;;;;;5021792;28;20076;-80
2022/05/30 01:14:38;;;;;;;1.17;0.70;;;11.60;99.90;;;;;;5015320;28;20156;-80
2022/05/30 01:17:08;;;;;;;0.35;0.35;;;11.70;99.90;;;;;;5027768;28;20242;-80
2022/05/30 01:20:02;;;;;;;0.30;0.30;;;11.70;99.90;;;;;;5022032;28;20034;-79
2022/05/30 01:22:39;;;;;;;0.73;0.68;;;11.70;99.90;;;;;;5006058;28;20089;-80
2022/05/30 01:25:20;;;;;;;1.35;0.82;;;11.70;99.90;;;;;;5015691;28;20040;-80
2022/05/30 01:28:08;;;;;;;0.95;0.55;;;11.80;99.90;;;;;;5012313;28;20485;-80
2022/05/30 01:30:37;;;;;;;0.68;0.47;;;11.80;99.90;;;;;;5019145;28;20103;-80
2022/05/30 01:33:02;;;;;;;0.03;0.03;;;11.80;99.90;;;;;;5022277;28;20037;-79
2022/05/30 01:35:29;;;;;;;1.55;0.25;;;11.70;99.90;;;;;;5017816;28;20044;-79
2022/05/30 01:37:58;;;;;;;0.60;0.40;;;11.80;99.90;;;;;;5012994;28;20057;-80
2022/05/30 01:40:26;;;;;;;0.50;0.40;;;11.80;99.90;;;;;;5026364;28;20026;-80
2022/05/30 01:42:52;;;;;;;0.45;0.38;;;11.90;99.90;;;;;;5014633;28;20034;-80
2022/05/30 01:45:18;;;;;;;0.38;0.30;;;11.90;99.90;;;;;;5014646;28;20095;-80
2022/05/30 01:47:43;;;;;;;4.50;0.40;;;11.90;99.90;;;;;;5030146;28;20442;-80
2022/05/30 01:50:09;;;;;;;0.57;0.57;;;12.00;99.90;;;;;;5020869;28;20034;-79
2022/05/30 01:52:35;;;;;;;0.90;0.85;;;12.00;99.90;;;;;;5017269;28;20037;-79
2022/05/30 01:55:00;;;;;;;0.47;0.47;;;11.90;99.90;;;;;;5025479;28;20117;-80
2022/05/30 01:57:26;;;;;;;0.40;0.40;;;12.00;99.90;;;;;;5018338;28;20373;-79
2022/05/30 01:59:51;;;;;;;0.40;0.40;;;12.00;99.90;;;;;;5010850;28;20154;-79
2022/05/30 02:02:16;;;;;;;0.55;0.45;;;12.00;99.90;;;;;;5011425;28;20125;-80
2022/05/30 02:04:42;;;;;;;1.20;0.68;;;12.10;99.90;;;;;;5013767;28;20030;-79
2022/05/30 02:07:07;;;;;;;0.30;0.30;;;12.10;99.90;;;;;;5011727;28;20431;-80
2022/05/30 02:09:33;;;;;;;0.60;0.30;;;12.10;99.90;;;;;;5013968;28;20770;-79
2022/05/30 02:11:59;;;;;;;1.58;0.73;;;12.10;99.90;;;;;;5013908;28;20095;-80
2022/05/30 02:14:25;;;;;;;4.85;0.60;;;12.10;99.90;;;;;;5022375;28;20036;-78
2022/05/30 02:17:06;;;;;;;1.02;0.70;;;12.10;99.90;;;;;;5035395;28;20640;-79
2022/05/30 02:19:35;;;;;;;0.35;0.35;;;12.10;99.90;;;;;;5017087;28;20034;-79
2022/05/30 02:22:00;;;;;;;0.60;0.60;;;12.00;99.90;;;;;;5020941;28;20036;-79
2022/05/30 02:24:27;;;;;;;0.43;0.40;;;12.00;99.90;;;;;;5015696;28;20030;-79
2022/05/30 02:26:52;;;;;;;0.52;0.40;;;11.90;99.90;;;;;;5015945;28;20038;-79
2022/05/30 02:29:18;;;;;;;1.08;0.85;;;11.80;99.90;;;;;;5013998;28;20034;-79
2022/05/30 02:31:43;;;;;;;0.55;0.40;;;11.70;99.90;;;;;;5010418;28;20026;-79
2022/05/30 02:36:53;;;;;;;0.98;0.22;;;11.60;99.90;;;;;;5011988;28;20065;-78
2022/05/30 02:39:21;;;;;;;1.10;1.00;;;11.60;99.90;;;;;;5010728;28;20461;-80
2022/05/30 02:41:48;;;;;;;0.98;0.63;;;11.60;99.90;;;;;;5015780;28;20392;-78
2022/05/30 02:44:19;;;;;;;0.43;0.32;;;11.60;99.90;;;;;;5018173;28;20475;-79
2022/05/30 02:46:53;;;;;;;0.32;0.32;;;11.60;99.90;;;;;;5014926;28;20033;-78
2022/05/30 02:49:20;;;;;;;0.40;0.40;;;11.60;99.90;;;;;;5016498;28;20227;-79
2022/05/30 02:51:46;;;;;;;2.45;1.00;;;11.70;99.90;;;;;;5010432;28;20484;-78
2022/05/30 02:54:13;;;;;;;0.85;0.60;;;11.70;99.90;;;;;;5022331;28;20041;-79
2022/05/30 02:56:39;;;;;;;1.15;0.50;;;11.80;99.90;;;;;;5009962;28;20059;-79
2022/05/30 02:59:06;;;;;;;0.93;0.70;;;11.90;99.90;;;;;;5018111;28;20026;-78
2022/05/30 03:01:32;;;;;;;0.73;0.73;;;11.80;99.90;;;;;;5012448;28;20515;-80
2022/05/30 03:04:02;;;;;;;1.00;0.63;;;11.90;99.90;;;;;;5015566;28;20455;-79
2022/05/30 03:06:28;;;;;;;0.63;0.63;;;11.80;99.90;;;;;;5013911;28;20026;-79
2022/05/30 03:08:54;;;;;;;1.67;0.80;;;11.80;99.90;;;;;;5013516;28;20038;-79
2022/05/30 03:11:19;;;;;;;0.85;0.50;;;11.90;99.90;;;;;;5011144;28;20121;-79
2022/05/30 03:13:45;;;;;;;0.47;0.47;;;11.80;99.90;;;;;;5013480;28;20113;-79
2022/05/30 03:16:11;;;;;;;0.80;0.47;;;11.70;99.90;;;;;;5016746;28;20013;-79
2022/05/30 03:18:36;;;;;;;0.57;0.57;;;11.70;99.90;;;;;;5010304;28;20452;-79
2022/05/30 03:21:02;;;;;;;0.60;0.60;;;11.70;99.90;;;;;;5016315;28;20052;-79
2022/05/30 03:23:28;;;;;;;2.13;1.17;;;11.70;99.90;;;;;;5009950;28;20034;-79
2022/05/30 03:25:53;;;;;;;1.65;1.40;;;11.70;99.90;;;;;;5009366;28;20040;-78
2022/05/30 03:28:19;;;;;;;0.60;0.60;;;11.80;99.90;;;;;;5019147;28;20033;-80
2022/05/30 03:30:44;;;;;;;2.63;0.80;;;11.80;99.90;;;;;;5019915;28;20030;-80
2022/05/30 03:33:10;;;;;;;3.05;0.75;;;11.90;99.90;;;;;;5016332;28;20037;-79
2022/05/30 03:35:37;;;;;;;1.77;1.00;;;11.80;99.90;;;;;;5010623;28;20160;-78
2022/05/30 03:38:04;;;;;;;1.85;0.82;;;11.80;99.90;;;;;;5009347;28;20036;-78
2022/05/30 03:40:30;;;;;;;1.13;1.02;;;11.70;99.90;;;;;;5025958;28;20036;-78
2022/05/30 03:42:55;;;;;;;3.03;1.48;;;11.80;99.90;;;;;;5013172;28;20409;-78
2022/05/30 03:45:21;;;;;;;1.00;0.90;;;11.80;99.90;;;;;;5028594;28;20091;-79
2022/05/30 03:47:48;;;;;;;0.77;0.68;;;11.80;99.90;;;;;;5025838;28;20033;-78
2022/05/30 03:50:17;;;;;;;0.80;0.80;;;11.90;99.90;;;;;;5011712;28;20033;-78
2022/05/30 03:52:42;;;;;;;0.57;0.57;;;11.80;99.90;;;;;;5008378;28;20049;-78
2022/05/30 03:55:12;;;;;;;0.60;0.45;;;12.00;99.90;;;;;;5008211;28;20072;-79
2022/05/30 03:57:40;;;;;;;5.88;0.93;;;12.00;99.90;;;;;;5020210;28;20029;-79
2022/05/30 04:00:10;;;;;;;2.08;0.88;;;12.20;99.90;;;;;;5022070;28;20649;-79
2022/05/30 04:02:36;;;;;;;4.88;1.65;;;12.10;99.90;;;;;;5024674;28;20076;-78
2022/05/30 04:05:02;;;;;;;3.33;1.23;;;12.20;99.90;;;;;;5018827;28;20092;-78
2022/05/30 04:07:28;;;;;;;2.72;0.98;;;12.30;99.90;;;;;;5014029;28;20021;-79
2022/05/30 04:09:53;;;;;;;1.45;1.08;;;12.30;99.90;;;;;;5015462;28;20508;-79
2022/05/30 04:12:20;;;;;;;2.63;1.05;;;12.30;99.90;;;;;;5016739;28;20029;-79
2022/05/30 04:14:51;;;;;;;0.88;0.55;;;12.20;99.90;;;;;;5012695;28;20088;-78
2022/05/30 04:17:17;;;;;;;1.02;0.68;;;12.10;99.90;;;;;;5014775;28;20104;-78
2022/05/30 04:19:42;;;;;;;1.02;1.02;;;12.10;99.90;;;;;;5012602;28;20121;-78
2022/05/30 04:22:08;;;;;;;2.63;0.90;;;12.10;99.90;;;;;;5030875;28;20029;-79
2022/05/30 04:24:33;;;;;;;1.13;0.88;;;12.10;99.90;;;;;;5019755;28;20752;-79
2022/05/30 04:26:59;;;;;;;2.78;0.70;;;12.00;99.90;;;;;;5014075;28;20053;-79
2022/05/30 04:29:24;;;;;;;0.55;0.55;;;11.80;99.90;;;;;;5014613;28;20076;-78
2022/05/30 04:31:50;;;;;;;4.20;0.90;;;11.70;99.90;;;;;;5021110;28;20221;-79
2022/05/30 04:34:15;;;;;;;4.97;1.95;;;11.80;99.90;;;;;;5024023;28;20030;-79
2022/05/30 04:36:40;;;;;;;0.95;0.88;;;11.90;99.90;;;;;;5022935;28;20022;-79
2022/05/30 04:39:06;;;;;;;2.60;1.60;;;11.80;99.90;;;;;;5015269;28;20125;-78
2022/05/30 04:41:31;;;;;;;0.40;0.38;;;11.80;99.90;;;;;;5012738;28;20037;-79
2022/05/30 04:43:59;;;;;;;0.68;0.68;;;11.90;99.90;;;;;;5015081;28;20104;-79
2022/05/30 04:46:25;;;;;;;1.10;1.00;;;11.80;99.90;;;;;;5015489;28;20034;-79
2022/05/30 04:48:50;;;;;;;0.50;0.50;;;11.80;99.90;;;;;;5021674;28;20187;-80
2022/05/30 04:51:16;;;;;;;0.90;0.90;;;12.00;99.90;;;;;;5014238;28;20037;-80
2022/05/30 04:53:41;;;;;;;3.20;1.33;;;12.10;99.90;;;;;;5011952;28;20033;-79
2022/05/30 04:56:07;;;;;;;1.75;1.10;;;12.10;99.90;;;;;;5020447;28;20400;-79
2022/05/30 04:58:35;;;;;;;0.63;0.57;;;12.00;99.90;;;;;;5021386;28;20377;-78
2022/05/30 05:01:03;;;;;;;1.88;1.02;;;11.80;99.90;;;;;;5012645;28;20026;-79
2022/05/30 05:03:30;;;;;;;1.33;1.15;;;11.70;99.90;;;;;;5018190;28;20103;-78
2022/05/30 05:06:17;;;;;;;0.57;0.57;;;11.70;99.90;;;;;;5020575;28;20026;-78
2022/05/30 05:08:54;;;;;;;1.52;0.93;;;11.50;99.90;;;;;;5015997;28;20105;-79
2022/05/30 05:11:26;;;;;;;0.80;0.75;;;11.50;99.90;;;;;;5021800;28;20459;-79
2022/05/30 05:13:52;;;;;;;;;;;11.50;99.90;;;;;;5022329;28;20025;-85
2022/05/30 05:16:20;;;;;;;1.50;1.13;;;11.40;99.90;;;;;;5011084;28;20333;-83
2022/05/30 05:18:46;;;;;;;0.70;0.70;;;11.50;99.90;;;;;;5024709;28;20029;-82
2022/05/30 05:21:30;;;;;;;1.58;1.10;;;11.60;99.90;;;;;;5023377;28;20037;-78
2022/05/30 05:23:57;;;;;;;1.80;1.20;;;11.60;99.90;;;;;;5010199;28;20038;-76
2022/05/30 05:26:23;;;;;;;1.45;1.30;;;11.60;99.90;;;;;;5016511;28;20506;-78
2022/05/30 05:28:49;;;;;;;0.82;0.82;;;11.60;99.90;;;;;;5015649;28;20030;-79
2022/05/30 05:31:22;;;;;;;6.68;2.53;;;11.70;99.90;;;;;;5011621;28;20388;-78
2022/05/30 05:33:48;;;;;;;3.10;2.28;;;11.80;99.90;;;;;;5018805;28;20037;-77
2022/05/30 05:36:22;;;;;;;1.00;0.70;;;11.90;99.90;;;;;;5018278;28;20030;-78
2022/05/30 05:38:48;;;;;;;2.72;1.92;;;12.00;99.90;;;;;;5011839;28;20033;-79
2022/05/30 05:41:13;;;;;;;0.75;0.65;;;12.20;99.90;;;;;;5013482;28;20104;-79
2022/05/30 05:43:39;;;;;;;1.23;0.60;;;12.40;99.90;;;;;;5011613;28;20030;-79
2022/05/30 05:46:04;;;;;;;1.02;0.60;;;12.50;99.90;;;;;;5010206;28;20683;-80
2022/05/30 05:48:30;;;;;;;2.60;0.93;;;12.50;99.90;;;;;;5018575;28;20029;-80
2022/05/30 05:50:55;;;;;;;4.70;1.13;;;12.80;99.90;;;;;;5030634;28;20030;-79
2022/05/30 05:53:21;;;;;;;0.50;0.40;;;13.00;99.90;;;;;;5012662;28;20166;-77
2022/05/30 05:55:46;;;;;;;0.70;0.70;;;13.20;99.90;;;;;;5014556;28;20499;-78
2022/05/30 05:58:12;;;;;;;1.13;0.63;;;13.20;99.90;;;;;;5025678;28;20483;-78
2022/05/30 06:00:37;;;;;;;0.93;0.93;;;13.30;99.90;;;;;;5022547;28;20025;-78
2022/05/30 06:03:03;;;;;;;3.83;0.90;;;13.30;99.90;;;;;;5012315;28;20032;-77
2022/05/30 06:05:30;;;;;;;0.73;0.60;;;13.30;99.90;;;;;;5024727;28;20029;-81
2022/05/30 06:07:59;;;;;;;1.92;1.33;;;13.30;99.90;;;;;;5028335;28;20033;-75
2022/05/30 06:10:25;;;;;;;1.63;0.73;;;13.50;99.90;;;;;;5025265;28;20025;-78
2022/05/30 06:12:51;;;;;;;0.52;0.52;;;13.50;99.90;;;;;;5013535;28;20026;-80
2022/05/30 06:15:18;;;;;;;0.57;0.55;;;13.10;99.90;;;;;;5016616;28;20522;-78
2022/05/30 06:17:45;;;;;;;0.40;0.40;;;13.00;99.90;;;;;;5017006;28;20041;-79
2022/05/30 06:20:14;;;;;;;0.38;0.38;;;12.90;99.90;;;;;;5012527;28;20018;-79
2022/05/30 06:22:39;;;;;;;1.70;0.63;;;12.60;99.90;;;;;;5015597;28;20132;-79
2022/05/30 06:25:06;;;;;;;1.83;0.93;;;12.50;99.90;;;;;;5011898;28;20326;-77
2022/05/30 06:27:40;;;;;;;1.15;0.80;;;12.30;99.90;;;;;;5022958;28;20503;-78
2022/05/30 06:30:09;;;;;;;0.50;0.50;;;12.30;99.90;;;;;;5014415;28;20056;-79
2022/05/30 06:32:35;;;;;;;1.27;0.77;;;12.20;99.90;;;;;;5024992;28;20455;-78
2022/05/30 06:35:00;;;;;;;1.58;0.90;;;12.10;99.90;;;;;;5020728;28;20078;-80
2022/05/30 06:37:26;;;;;;;0.82;0.63;;;12.00;99.90;;;;;;5012649;28;20030;-80
2022/05/30 06:39:52;;;;;;;1.02;1.02;;;12.00;99.90;;;;;;5014077;28;20037;-79
2022/05/30 06:42:18;;;;;;;0.88;0.50;;;12.00;99.90;;;;;;5011870;28;20034;-80
2022/05/30 06:44:43;;;;;;;0.77;0.70;;;12.00;99.90;;;;;;5009524;28;20108;-79
2022/05/30 06:47:09;;;;;;;3.95;1.15;;;12.20;99.90;;;;;;5020343;28;20021;-79
2022/05/30 06:49:37;;;;;;;1.05;0.82;;;12.40;99.90;;;;;;5029515;28;20030;-79
2022/05/30 06:52:03;;;;;;;0.65;0.65;;;12.50;99.90;;;;;;5013410;28;20041;-80
2022/05/30 06:54:28;;;;;;;0.77;0.70;;;12.30;99.90;;;;;;5010170;28;20033;-82
2022/05/30 06:59:38;;;;;;;5.80;1.60;;;12.20;99.90;;;;;;5029764;28;20083;-82
2022/05/30 07:02:05;;;;;;;3.53;1.15;;;12.30;99.90;;;;;;5020366;28;20702;-80
2022/05/30 07:04:32;;;;;;;0.57;0.57;;;12.40;99.90;;;;;;5009980;28;20034;-84
2022/05/30 07:07:01;;;;;;;1.35;0.73;;;12.50;99.90;;;;;;5010774;28;20476;-81
2022/05/30 07:09:27;;;;;;;0.60;0.60;;;12.50;99.90;;;;;;5023981;28;20037;-80
2022/05/30 07:11:52;;;;;;;2.30;1.88;;;12.40;99.90;;;;;;5015911;28;20033;-80
2022/05/30 07:14:18;;;;;;;4.47;1.13;;;12.50;99.90;;;;;;5009237;28;20033;-81
2022/05/30 07:16:44;;;;;;;3.20;1.67;;;12.60;99.90;;;;;;5025431;28;20380;-82
2022/05/30 07:19:10;;;;;;;0.75;0.75;;;12.90;99.90;;;;;;5017753;28;20427;-83
2022/05/30 07:21:38;;;;;;;6.07;0.82;;;12.80;99.90;;;;;;5009017;28;20405;-80
2022/05/30 07:24:03;;;;;;;0.95;0.75;;;12.60;99.90;;;;;;5009342;28;20756;-81
2022/05/30 07:26:29;;;;;;;1.70;0.60;;;12.40;99.90;;;;;;5015971;28;20087;-78
2022/05/30 07:28:55;;;;;;;1.33;1.23;;;12.40;99.90;;;;;;5028559;28;20037;-80
2022/05/30 07:31:25;;;;;;;3.40;1.35;;;12.50;99.90;;;;;;5023576;28;20029;-82
2022/05/30 07:33:50;;;;;;;2.60;1.20;;;12.60;99.90;;;;;;5012748;28;20045;-82
2022/05/30 07:36:24;;;;;;;1.40;1.00;;;12.60;99.90;;;;;;5010998;28;20034;-82
2022/05/30 07:38:50;;;;;;;0.95;0.75;;;12.80;99.90;;;;;;5008862;28;20044;-81
2022/05/30 07:41:16;;;;;;;1.25;0.80;;;13.00;99.90;;;;;;5011114;28;20026;-82
2022/05/30 07:43:41;;;;;;;0.88;0.75;;;13.50;99.90;;;;;;5021603;28;20037;-83
2022/05/30 07:46:10;;;;;;;1.63;1.17;;;13.90;99.90;;;;;;5009223;28;20053;-82
2022/05/30 07:48:37;;;;;;;1.42;0.93;;;14.00;99.90;;;;;;5008636;28;20056;-84
2022/05/30 07:51:03;;;;;;;1.83;0.85;;;13.80;99.90;;;;;;5007898;28;20045;-81
2022/05/30 07:53:29;;;;;;;1.80;0.98;;;13.40;99.90;;;;;;5006620;28;20459;-82
2022/05/30 07:55:57;;;;;;;1.00;0.90;;;13.30;99.90;;;;;;5007794;28;20137;-81
2022/05/30 07:58:23;;;;;;;1.25;1.08;;;13.20;99.90;;;;;;5010272;28;20065;-84
2022/05/30 08:00:51;;;;;;;1.27;0.93;;;13.30;99.90;;;;;;5010840;28;20451;-82
2022/05/30 08:03:16;;;;;;;1.27;0.90;;;13.30;99.90;;;;;;5014513;28;20480;-83
2022/05/30 08:05:43;;;;;;;1.13;1.02;;;13.50;99.90;;;;;;5022339;28;20033;-82
2022/05/30 08:08:09;;;;;;;1.08;0.98;;;13.80;99.90;;;;;;5008522;28;20553;-84
2022/05/30 08:10:35;;;;;;;6.93;1.10;;;13.90;99.90;;;;;;5007952;28;20075;-83
2022/05/30 08:13:01;;;;;;;1.40;1.30;;;13.80;99.90;;;;;;5012854;28;20477;-84
2022/05/30 08:15:26;;;;;;;3.88;1.02;;;13.90;99.90;;;;;;5011107;28;20112;-83
2022/05/30 08:17:56;;;;;;;0.90;0.82;;;14.10;99.90;;;;;;5011536;28;20132;-82
2022/05/30 08:20:22;;;;;;;0.90;0.70;;;14.30;99.90;;;;;;5027966;28;20705;-81
2022/05/30 08:22:48;;;;;;;0.60;0.60;;;14.30;99.90;;;;;;5015557;28;20516;-84
2022/05/30 08:25:16;;;;;;;0.43;0.40;;;14.30;99.90;;;;;;5011835;28;20125;-82
2022/05/30 08:27:42;;;;;;;4.35;0.55;;;14.30;97.70;;;;;;5017827;28;20030;-83
2022/05/30 08:30:10;;;;;;;1.25;0.75;;;14.40;96.10;;;;;;5022380;28;20079;-83
2022/05/30 08:32:40;;;;;;;0.75;0.55;;;14.40;95.60;;;;;;5017096;28;20205;-82
2022/05/30 08:35:07;;;;;;;0.40;0.40;;;14.60;96.00;;;;;;5015732;28;20424;-82
2022/05/30 08:37:35;;;;;;;0.95;0.70;;;14.70;95.70;;;;;;5009336;28;20304;-84
2022/05/30 08:42:56;;;;;;;1.15;1.00;;;15.30;93.30;;;;;;5011265;28;20040;-83
2022/05/30 08:45:23;;;;;;;7.35;1.05;;;15.20;95.10;;;;;;5009850;28;20226;-83
2022/05/30 08:47:50;;;;;;;0.85;0.65;;;15.20;94.60;;;;;;5011762;28;20387;-82
2022/05/30 08:50:23;;;;;;;9.45;2.17;;;14.60;95.40;;;;;;5017545;28;20447;-83
2022/05/30 08:53:31;;;;;;;1.50;1.10;;;14.70;97.70;;;;;;5009951;28;20033;-83
2022/05/30 08:56:06;;;;;;;0.43;0.40;;;15.00;97.50;;;;;;5012985;28;20065;-83
2022/05/30 08:58:36;;;;;;;1.75;0.90;;;15.20;95.00;;;;;;5007319;28;20117;-82
2022/05/30 09:01:07;;;;;;;6.13;0.70;;;14.90;94.20;;;;;;5008056;28;20172;-83
2022/05/30 09:03:41;;;;;;;5.47;0.77;;;14.90;92.00;;;;;;5009440;28;20072;-85
2022/05/30 09:06:22;;;;;;;0.43;0.43;;;15.00;91.50;;;;;;5012863;28;20040;-83
2022/05/30 09:08:55;;;;;;;1.25;0.98;;;14.80;91.70;;;;;;5011961;28;20049;-83
2022/05/30 09:11:46;;;;;;;2.35;0.80;;;15.10;91.40;;;;;;5029992;28;20029;-81
2022/05/30 09:14:17;;;;;;;2.17;0.93;;;15.40;92.20;;;;;;5016121;28;20034;-82
2022/05/30 09:16:56;;;;;;;1.65;0.63;;;15.10;90.70;;;;;;5028943;28;20029;-82
2022/05/30 09:19:24;;;;;;;0.77;0.77;;;15.20;91.80;;;;;;5015111;28;20080;-83
2022/05/30 09:21:51;;;;;;;0.43;0.43;;;15.30;91.00;;;;;;5012383;28;20030;-82
2022/05/30 09:24:16;;;;;;;0.73;0.73;;;15.10;91.60;;;;;;5015313;28;20159;-81
2022/05/30 09:26:42;;;;;;;0.63;0.50;;;14.70;92.90;;;;;;5031378;28;20112;-83
2022/05/30 09:29:28;;;;;;;0.65;0.60;;;14.50;93.00;;;;;;5029304;28;20515;-84
2022/05/30 09:32:08;;;;;;;0.45;0.45;;;14.80;92.50;;;;;;5016538;28;20069;-81
2022/05/30 09:34:43;;;;;;;0.40;0.40;;;15.00;91.50;;;;;;5020536;28;20505;-83
2022/05/30 09:37:15;;;;;;;0.95;0.95;;;15.10;90.30;;;;;;5019096;28;20157;-83
2022/05/30 09:39:47;;;;;;;0.65;0.65;;;15.30;88.70;;;;;;5013253;28;20042;-83
2022/05/30 09:42:24;;;;;;;0.60;0.60;;;15.30;86.20;;;;;;5021859;28;20082;-83
2022/05/30 09:44:55;;;;;;;0.40;0.40;;;15.10;87.00;;;;;;5024466;28;20699;-83
2022/05/30 09:47:22;;;;;;;3.13;1.20;;;15.10;88.70;;;;;;5028714;28;20025;-83
2022/05/30 09:50:42;;;;;;;5.18;0.52;;;15.20;90.10;;;;;;5011982;28;20037;-83
2022/05/30 09:53:08;;;;;;;1.20;0.65;;;15.60;87.70;;;;;;4952463;28;20027;-83
2022/05/30 09:55:46;;;;;;;1.35;0.65;;;16.10;87.90;;;;;;5007543;28;20054;-82
2022/05/30 09:58:12;;;;;;;5.60;0.50;;;16.20;83.60;;;;;;5010585;28;20096;-85
2022/05/30 10:00:53;;;;;;;1.17;0.43;;;16.00;84.30;;;;;;5011037;28;20022;-83
2022/05/30 10:03:34;;;;;;;0.63;0.55;;;15.50;82.90;;;;;;5017506;28;20033;-82
2022/05/30 10:06:21;;;;;;;0.25;0.25;;;15.60;85.60;;;;;;5031096;28;20033;-82
2022/05/30 10:08:48;;;;;;;0.20;0.20;;;15.30;82.90;;;;;;5025951;28;20036;-81
2022/05/30 10:11:32;;;;;;;0.50;0.50;;;15.20;82.20;;;;;;5027620;28;20107;-82
2022/05/30 10:13:59;;;;;;;0.22;0.22;;;15.30;84.60;;;;;;5025746;28;20030;-83
2022/05/30 10:16:33;;;;;;;0.20;0.20;;;15.80;84.40;;;;;;5019375;28;20029;-83
2022/05/30 10:19:06;;;;;;;0.22;0.22;;;16.40;81.30;;;;;;5022741;28;20026;-82
2022/05/30 10:28:14;;;;;;;2.85;0.30;;;15.90;75.20;;;;;;5030393;28;20569;-82
2022/05/30 10:30:48;;;;;;;0.47;0.45;;;16.20;78.40;;;;;;5011680;28;20472;-82
2022/05/30 10:33:38;;;;;;;0.30;0.30;;;16.40;73.10;;;;;;5010589;28;20026;-84
2022/05/30 10:36:31;;;;;;;0.30;0.30;;;16.40;69.80;;;;;;5010483;28;20018;-83
2022/05/30 10:39:11;;;;;;;0.32;0.28;;;16.90;70.40;;;;;;5010602;28;20026;-83
2022/05/30 10:41:36;;;;;;;0.22;0.22;;;17.20;68.90;;;;;;5017338;28;20049;-83
2022/05/30 10:44:26;;;;;;;0.30;0.28;;;17.20;69.10;;;;;;5026915;28;20049;-83
2022/05/30 10:47:15;;;;;;;0.50;0.38;;;17.10;69.20;;;;;;5018416;28;20714;-84
2022/05/30 10:49:49;;;;;;;0.50;0.30;;;16.70;68.50;;;;;;5010484;28;20083;-83
2022/05/30 10:52:24;;;;;;;0.25;0.17;;;16.70;68.90;;;;;;5009084;28;20037;-82
2022/05/30 10:55:01;;;;;;;3.22;0.43;;;16.70;69.10;;;;;;5010839;28;20147;-81
2022/05/30 10:57:52;;;;;;;0.20;0.20;;;16.70;69.30;;;;;;5020574;28;20026;-82
2022/05/30 11:00:20;;;;;;;0.55;0.40;;;17.00;68.90;;;;;;5009559;28;20026;-82
2022/05/30 11:03:04;;;;;;;0.40;0.40;;;17.00;68.40;;;;;;5015376;28;20037;-82
2022/05/30 11:05:43;;;;;;;0.30;0.20;;;16.90;69.10;;;;;;5009796;28;20038;-82
2022/05/30 11:08:23;;;;;;;0.17;0.17;;;17.50;69.90;;;;;;5018821;28;20056;-79
2022/05/30 11:10:56;;;;;;;0.75;0.32;;;17.60;64.90;;;;;;5015306;28;20025;-78
2022/05/30 11:13:34;;;;;;;0.30;0.30;;;17.50;67.50;;;;;;5014535;28;20049;-79
2022/05/30 11:16:31;;;;;;;3.20;0.73;;;18.10;66.10;;;;;;5022063;28;20029;-79
2022/05/30 11:19:30;;;;;;;0.20;0.20;;;18.50;63.40;;;;;;5012243;28;20504;-81
2022/05/30 11:22:07;;;;;;;1.85;0.35;;;19.00;61.40;;;;;;5014240;28;20036;-77
2022/05/30 11:24:34;;;;;;;0.68;0.43;;;18.80;60.10;;;;;;5019418;28;20029;-79
2022/05/30 11:27:06;;;;;;;0.20;0.20;;;18.50;59.80;;;;;;5015635;28;20087;-78
2022/05/30 11:29:58;;;;;;;1.23;1.10;;;18.10;61.40;;;;;;5026796;28;20393;-76
2022/05/30 11:33:02;;;;;;;4.32;0.40;;;17.50;63.90;;;;;;5019166;28;20052;-78
2022/05/30 11:35:31;;;;;;;0.35;0.35;;;18.00;64.40;;;;;;5012669;28;20044;-77
2022/05/30 11:38:20;;;;;;;0.20;0.20;;;18.20;66.20;;;;;;5011697;28;20024;-77
2022/05/30 11:41:24;;;;;;;0.25;0.25;;;18.50;62.10;;;;;;5014049;28;20113;-77
2022/05/30 11:47:52;;;;;;;0.25;0.20;;;17.80;64.60;;;;;;4939078;28;20038;-78
2022/05/30 11:50:22;;;;;;;0.55;0.50;;;18.30;63.70;;;;;;5008117;28;20033;-77
2022/05/30 11:53:24;;;;;;;0.37;0.37;;;18.60;61.90;;;;;;5019830;28;20060;-78
2022/05/30 11:56:02;;;;;;;0.50;0.50;;;18.40;61.80;;;;;;5016430;28;20067;-76
2022/05/30 11:59:06;;;;;;;0.68;0.32;;;18.30;63.40;;;;;;5012441;28;20396;-77
2022/05/30 12:01:36;;;;;;;0.22;0.22;;;18.00;66.30;;;;;;4992413;28;20037;-77
2022/05/30 12:04:49;;;;;;;0.40;0.40;;;17.70;66.60;;;;;;5016566;28;20038;-77
2022/05/30 12:07:35;;;;;;;0.73;0.47;;;18.30;63.30;;;;;;5013053;28;20040;-78
2022/05/30 12:10:35;;;;;;;1.25;0.45;;;19.20;60.90;;;;;;5013871;28;20025;-78
2022/05/30 12:13:18;;;;;;;0.20;0.20;;;20.10;58.80;;;;;;5015376;28;20114;-78
2022/05/30 12:16:05;;;;;;;3.13;0.52;;;19.70;57.30;;;;;;5021722;28;20045;-77
2022/05/30 12:24:32;;;;;;;0.63;0.50;;;20.50;60.80;;;;;;5023004;28;20404;-78
2022/05/30 12:27:04;;;;;;;2.75;0.52;;;21.70;53.60;;;;;;5024812;28;20094;-78
2022/05/30 12:29:30;;;;;;;0.95;0.60;;;21.60;52.10;;;;;;5025722;28;20298;-78
2022/05/30 12:32:32;;;;;;;3.50;0.85;;;21.60;53.40;;;;;;5020637;28;20026;-77
2022/05/30 12:34:58;;;;;;;3.67;1.17;;;21.60;51.40;;;;;;5025814;28;20162;-77
2022/05/30 12:37:43;;;;;;;0.55;0.40;;;22.10;54.20;;;;;;5009326;28;20028;-76
2022/05/30 12:40:56;;;;;;;0.43;0.43;;;23.60;50.90;;;;;;5026294;28;20117;-76
2022/05/30 12:43:23;;;;;;;0.47;0.47;;;23.90;47.10;;;;;;5020396;28;20480;-76
2022/05/30 12:45:54;;;;;;;1.50;0.65;;;23.60;47.10;;;;;;5012188;28;20033;-77
2022/05/30 12:48:33;;;;;;;0.68;0.45;;;23.10;48.00;;;;;;5012258;28;20029;-76
2022/05/30 12:51:00;;;;;;;1.83;0.63;;;24.10;47.20;;;;;;5012242;28;20050;-76
2022/05/30 12:53:54;;;;;;;0.40;0.40;;;25.70;44.20;;;;;;5011519;28;20076;-76
2022/05/30 12:56:38;;;;;;;0.30;0.20;;;23.80;44.30;;;;;;5019130;28;20050;-77
2022/05/30 12:59:03;;;;;;;1.02;0.25;;;23.80;46.70;;;;;;5019593;28;20091;-77
2022/05/30 13:01:44;;;;;;;0.50;0.50;;;25.90;43.20;;;;;;5029835;28;20041;-77
2022/05/30 13:04:15;;;;;;;0.52;0.52;;;27.20;42.80;;;;;;5021987;28;20127;-77
2022/05/30 13:06:58;;;;;;;0.40;0.40;;;25.60;41.20;;;;;;5016925;28;20026;-77
2022/05/30 13:09:30;;;;;;;0.30;0.30;;;24.60;44.40;;;;;;5014719;28;20029;-77
2022/05/30 13:12:10;;;;;;;0.82;0.73;;;26.10;44.60;;;;;;5021105;28;20029;-77
2022/05/30 13:14:59;;;;;;;0.70;0.70;;;25.80;41.40;;;;;;5016464;28;20076;-77
2022/05/30 13:17:51;;;;;;;4.50;0.30;;;26.30;42.20;;;;;;5031419;28;20037;-76
2022/05/30 13:20:19;;;;;;;2.38;0.43;;;26.70;40.10;;;;;;5012140;28;20484;-77
2022/05/30 13:22:48;;;;;;;0.30;0.30;;;29.20;38.50;;;;;;5011809;28;20026;-78
2022/05/30 13:25:19;;;;;;;0.40;0.40;;;29.90;36.50;;;;;;5017649;28;20033;-77
2022/05/30 13:27:47;;;;;;;0.70;0.45;;;31.70;35.60;;;;;;5014096;28;20048;-76
2022/05/30 13:30:26;;;;;;;0.30;0.30;;;33.30;32.50;;;;;;5011495;28;20034;-76
2022/05/30 13:32:53;;;;;;;0.30;0.30;;;29.60;34.30;;;;;;5020853;28;20121;-77
2022/05/30 13:35:20;;;;;;;0.57;0.40;;;29.70;35.30;;;;;;5015781;28;20111;-77